Time;durP1;ratioP1;P1;durP2;ratioP2;P2;SDS_P1;SDS_P2;PMS_P1;PMS_P2;Temp;Humidity;BMP_temperature;BMP_pressure;BME280_temperature;BME280_humidity;BME280_pressure;Samples;Min_cycle;Max_cycle;Signal;HPM_P1;HPM_P2
2022/05/28 00:01:07;;;;;;;;;6.00;6.00;;;;;;;;5075049;28;9970;-78
2022/05/28 00:03:36;;;;;;;;;6.00;6.00;;;;;;;;5069223;28;10097;-80
2022/05/28 00:06:10;;;;;;;;;7.00;7.00;;;;;;;;5075254;28;10365;-79
2022/05/28 00:08:37;;;;;;;;;6.00;6.00;;;;;;;;5073784;28;10113;-79
2022/05/28 00:11:13;;;;;;;;;7.75;6.00;;;;;;;;5053081;28;10457;-79
2022/05/28 00:13:41;;;;;;;;;5.75;5.75;;;;;;;;5070017;28;10404;-79
2022/05/28 00:16:08;;;;;;;;;4.00;4.00;;;;;;;;5074727;28;10178;-81
2022/05/28 00:18:37;;;;;;;;;5.25;5.25;;;;;;;;5051708;28;10112;-80
2022/05/28 00:21:06;;;;;;;;;7.00;7.00;;;;;;;;5074318;28;10096;-80
2022/05/28 00:23:34;;;;;;;;;3.50;3.50;;;;;;;;5071447;28;10185;-80
2022/05/28 00:26:01;;;;;;;;;5.50;5.00;;;;;;;;5055842;28;10233;-80
2022/05/28 00:28:29;;;;;;;;;4.50;4.50;;;;;;;;5071748;28;10353;-80
2022/05/28 00:30:56;;;;;;;;;7.00;4.00;;;;;;;;5072692;28;10352;-80
2022/05/28 00:33:23;;;;;;;;;3.75;3.75;;;;;;;;5068533;28;10438;-80
2022/05/28 00:35:50;;;;;;;;;6.50;6.50;;;;;;;;5063461;28;10240;-81
2022/05/28 00:38:19;;;;;;;;;7.00;7.00;;;;;;;;5073048;28;10313;-80
2022/05/28 00:40:48;;;;;;;;;6.50;6.00;;;;;;;;5071882;28;10569;-80
2022/05/28 00:43:16;;;;;;;;;9.50;7.00;;;;;;;;5073513;28;10483;-79
2022/05/28 00:45:43;;;;;;;;;5.75;4.00;;;;;;;;5065644;28;10516;-80
2022/05/28 00:48:11;;;;;;;;;6.00;6.00;;;;;;;;5075449;28;10467;-78
2022/05/28 00:50:40;;;;;;;;;4.75;3.75;;;;;;;;5075376;28;10395;-78
2022/05/28 00:53:08;;;;;;;;;3.75;3.75;;;;;;;;5069904;28;10524;-79
2022/05/28 00:55:37;;;;;;;;;5.00;5.00;;;;;;;;5073081;28;11879;-78
2022/05/28 00:58:07;;;;;;;;;7.00;7.00;;;;;;;;5077596;28;10465;-81
2022/05/28 01:00:35;;;;;;;;;4.50;4.50;;;;;;;;5072680;28;10661;-80
2022/05/28 01:03:10;;;;;;;;;4.00;4.00;;;;;;;;5074980;28;10544;-80
2022/05/28 01:05:44;;;;;;;;;6.75;6.75;;;;;;;;5051895;28;11362;-79
2022/05/28 01:08:16;;;;;;;;;7.00;7.00;;;;;;;;5072687;28;10542;-80
2022/05/28 01:10:52;;;;;;;;;5.00;5.00;;;;;;;;5071207;28;10558;-79
2022/05/28 01:13:23;;;;;;;;;5.00;4.50;;;;;;;;5071191;28;10598;-79
2022/05/28 01:15:54;;;;;;;;;9.00;7.50;;;;;;;;5065546;28;10597;-80
2022/05/28 01:18:28;;;;;;;;;4.25;4.25;;;;;;;;5053551;28;10637;-79
2022/05/28 01:21:01;;;;;;;;;6.50;6.50;;;;;;;;5073706;28;10648;-79
2022/05/28 01:23:40;;;;;;;;;8.75;7.75;;;;;;;;5077046;28;10769;-80
2022/05/28 01:26:13;;;;;;;;;9.50;8.75;;;;;;;;5053616;28;10523;-80
2022/05/28 01:28:46;;;;;;;;;8.75;8.75;;;;;;;;5074817;28;10664;-80
2022/05/28 01:31:14;;;;;;;;;8.00;7.25;;;;;;;;5071584;28;10581;-80
2022/05/28 01:33:42;;;;;;;;;13.25;10.00;;;;;;;;5073269;28;10496;-80
2022/05/28 01:36:11;;;;;;;;;7.25;7.25;;;;;;;;5073486;28;10981;-80
2022/05/28 01:38:40;;;;;;;;;11.25;7.75;;;;;;;;5072589;28;10541;-81
2022/05/28 01:41:09;;;;;;;;;8.25;8.25;;;;;;;;5072827;28;10702;-80
2022/05/28 01:43:38;;;;;;;;;8.00;6.00;;;;;;;;5050427;28;10573;-79
2022/05/28 01:46:08;;;;;;;;;10.25;10.25;;;;;;;;5069472;28;10371;-80
2022/05/28 01:48:37;;;;;;;;;7.00;7.00;;;;;;;;5067894;28;10413;-80
2022/05/28 01:51:07;;;;;;;;;7.00;7.00;;;;;;;;5061489;28;10491;-80
2022/05/28 01:56:21;;;;;;;;;7.75;7.25;;;;;;;;5074418;28;10355;-80
2022/05/28 01:58:48;;;;;;;;;8.75;7.25;;;;;;;;5074007;28;10391;-81
2022/05/28 02:01:17;;;;;;;;;10.00;10.00;;;;;;;;5068801;28;10352;-80
2022/05/28 02:03:46;;;;;;;;;6.50;6.50;;;;;;;;5055164;28;10476;-81
2022/05/28 02:06:14;;;;;;;;;10.00;8.75;;;;;;;;5072502;28;10380;-81
2022/05/28 02:08:44;;;;;;;;;7.25;7.25;;;;;;;;5067795;28;10425;-80
2022/05/28 02:11:14;;;;;;;;;12.75;9.75;;;;;;;;5071658;28;10351;-80
2022/05/28 02:13:54;;;;;;;;;7.50;7.50;;;;;;;;5068091;28;10585;-81
2022/05/28 02:16:26;;;;;;;;;7.00;4.00;;;;;;;;5074348;28;10592;-78
2022/05/28 02:18:57;;;;;;;;;6.00;5.00;;;;;;;;5073598;28;10374;-81
2022/05/28 02:21:31;;;;;;;;;6.00;6.00;;;;;;;;5069504;28;10630;-81
2022/05/28 02:24:03;;;;;;;;;7.00;5.25;;;;;;;;5068292;28;10641;-82
2022/05/28 02:26:34;;;;;;;;;7.50;6.00;;;;;;;;5070367;28;10468;-81
2022/05/28 02:29:03;;;;;;;;;7.25;7.25;;;;;;;;5069857;28;10668;-81
2022/05/28 02:31:33;;;;;;;;;7.25;7.25;;;;;;;;5075346;28;10736;-82
2022/05/28 02:34:01;;;;;;;;;5.50;5.50;;;;;;;;5073529;28;10669;-82
2022/05/28 02:36:30;;;;;;;;;7.50;7.00;;;;;;;;5077938;28;10711;-82
2022/05/28 02:38:57;;;;;;;;;6.75;6.75;;;;;;;;5070933;28;10783;-80
2022/05/28 02:41:25;;;;;;;;;6.00;5.00;;;;;;;;5076450;28;10790;-79
2022/05/28 02:43:52;;;;;;;;;3.25;2.00;;;;;;;;5072123;28;10828;-80
2022/05/28 02:46:20;;;;;;;;;9.75;6.50;;;;;;;;5077844;28;10931;-79
2022/05/28 02:48:50;;;;;;;;;5.50;5.50;;;;;;;;5075750;28;10966;-79
2022/05/28 02:51:19;;;;;;;;;7.25;7.25;;;;;;;;5072371;28;10944;-80
2022/05/28 02:53:48;;;;;;;;;5.00;5.00;;;;;;;;5076206;28;10875;-80
2022/05/28 02:56:16;;;;;;;;;5.25;5.25;;;;;;;;5076395;28;10833;-79
2022/05/28 02:58:43;;;;;;;;;6.75;6.75;;;;;;;;5079835;28;11932;-79
2022/05/28 03:01:19;;;;;;;;;9.25;9.00;;;;;;;;5071819;28;10750;-80
2022/05/28 03:03:48;;;;;;;;;8.00;8.00;;;;;;;;5072295;28;10934;-79
2022/05/28 03:06:15;;;;;;;;;8.50;7.00;;;;;;;;5073912;28;11059;-79
2022/05/28 03:08:42;;;;;;;;;5.75;4.00;;;;;;;;5078214;28;10861;-79
2022/05/28 03:11:10;;;;;;;;;5.25;5.25;;;;;;;;5075965;28;10833;-79
2022/05/28 03:13:38;;;;;;;;;4.00;4.00;;;;;;;;5072868;28;10893;-78
2022/05/28 03:16:07;;;;;;;;;4.25;4.25;;;;;;;;5059249;28;10857;-78
2022/05/28 03:18:35;;;;;;;;;7.00;7.00;;;;;;;;5075795;28;11059;-78
2022/05/28 03:21:04;;;;;;;;;5.25;5.25;;;;;;;;5077769;28;10911;-78
2022/05/28 03:23:31;;;;;;;;;6.25;6.25;;;;;;;;5054529;28;10972;-79
2022/05/28 03:25:59;;;;;;;;;7.50;7.50;;;;;;;;5074803;28;11006;-78
2022/05/28 03:28:26;;;;;;;;;6.25;4.75;;;;;;;;5075314;28;11222;-78
2022/05/28 03:30:54;;;;;;;;;8.25;5.25;;;;;;;;5072050;28;10934;-78
2022/05/28 03:33:21;;;;;;;;;7.00;5.75;;;;;;;;5074524;28;10989;-80
2022/05/28 03:35:48;;;;;;;;;3.00;2.00;;;;;;;;5074718;28;11175;-80
2022/05/28 03:38:17;;;;;;;;;8.25;6.00;;;;;;;;5058911;28;11077;-80
2022/05/28 03:40:44;;;;;;;;;9.00;7.25;;;;;;;;5076937;28;11243;-80
2022/05/28 03:43:12;;;;;;;;;6.50;6.50;;;;;;;;5074332;28;11300;-79
2022/05/28 03:45:39;;;;;;;;;5.50;5.50;;;;;;;;5078739;28;11070;-80
2022/05/28 03:48:10;;;;;;;;;6.50;5.75;;;;;;;;5075628;28;11054;-80
2022/05/28 03:50:37;;;;;;;;;4.75;4.00;;;;;;;;5077721;28;11139;-83
2022/05/28 03:53:05;;;;;;;;;1.00;1.00;;;;;;;;5074215;28;11057;-80
2022/05/28 03:55:33;;;;;;;;;4.00;3.00;;;;;;;;5055918;28;11237;-82
2022/05/28 03:58:01;;;;;;;;;7.25;4.50;;;;;;;;5076777;28;11222;-82
2022/05/28 04:00:29;;;;;;;;;4.50;3.25;;;;;;;;5055612;28;11181;-81
2022/05/28 04:02:56;;;;;;;;;5.25;5.25;;;;;;;;5076469;28;11158;-81
2022/05/28 04:05:23;;;;;;;;;9.00;5.25;;;;;;;;5074768;28;11154;-81
2022/05/28 04:07:51;;;;;;;;;9.75;8.75;;;;;;;;5070761;28;11167;-82
2022/05/28 04:10:19;;;;;;;;;4.50;4.50;;;;;;;;5076784;28;11251;-84
2022/05/28 04:12:47;;;;;;;;;2.00;2.00;;;;;;;;5073274;28;11457;-82
2022/05/28 04:15:15;;;;;;;;;5.50;5.50;;;;;;;;5070652;28;11148;-81
2022/05/28 04:17:43;;;;;;;;;9.25;5.75;;;;;;;;5076180;28;11334;-80
2022/05/28 04:20:13;;;;;;;;;8.75;7.00;;;;;;;;5073854;28;11250;-79
2022/05/28 04:22:40;;;;;;;;;7.75;6.00;;;;;;;;5054387;28;11231;-82
2022/05/28 04:25:09;;;;;;;;;4.75;4.75;;;;;;;;5074036;28;11233;-81
2022/05/28 04:27:40;;;;;;;;;6.75;6.75;;;;;;;;5054091;28;11313;-84
2022/05/28 04:30:10;;;;;;;;;4.00;4.00;;;;;;;;5072285;28;11088;-85
2022/05/28 04:32:38;;;;;;;;;6.50;6.50;;;;;;;;5074090;28;11142;-88
2022/05/28 04:35:05;;;;;;;;;3.75;3.75;;;;;;;;5068117;28;13043;-85
2022/05/28 04:37:33;;;;;;;;;6.75;6.75;;;;;;;;5067761;28;11074;-87
2022/05/28 04:40:00;;;;;;;;;11.50;8.00;;;;;;;;5074441;28;11129;-82
2022/05/28 04:42:28;;;;;;;;;3.25;3.25;;;;;;;;5074795;28;11151;-85
2022/05/28 04:44:56;;;;;;;;;9.75;7.75;;;;;;;;5069396;28;11021;-89
2022/05/28 04:47:25;;;;;;;;;10.00;8.00;;;;;;;;5076219;28;11137;-82
2022/05/28 04:49:53;;;;;;;;;7.00;7.00;;;;;;;;5052049;28;11120;-83
2022/05/28 04:52:21;;;;;;;;;8.25;7.00;;;;;;;;5079141;28;11734;-86
2022/05/28 04:54:48;;;;;;;;;11.00;9.25;;;;;;;;5074509;28;10996;-87
2022/05/28 04:57:16;;;;;;;;;4.25;3.25;;;;;;;;5077805;28;11086;-86
2022/05/28 04:59:43;;;;;;;;;7.50;7.00;;;;;;;;5074051;28;10886;-86
2022/05/28 05:02:11;;;;;;;;;9.00;8.00;;;;;;;;5067157;28;10945;-87
2022/05/28 05:04:40;;;;;;;;;8.75;8.25;;;;;;;;5056322;28;11070;-85
2022/05/28 05:07:07;;;;;;;;;9.50;9.50;;;;;;;;5064693;28;11100;-88
2022/05/28 05:09:34;;;;;;;;;7.75;7.75;;;;;;;;5073086;28;11031;-83
2022/05/28 05:12:02;;;;;;;;;5.25;2.50;;;;;;;;5070663;28;11458;-83
2022/05/28 05:14:30;;;;;;;;;15.00;12.00;;;;;;;;5071846;28;10554;-85
2022/05/28 05:16:57;;;;;;;;;13.00;9.75;;;;;;;;5075114;28;10555;-85
2022/05/28 05:19:24;;;;;;;;;13.00;12.50;;;;;;;;5071647;28;10647;-80
2022/05/28 05:21:56;;;;;;;;;10.75;10.75;;;;;;;;5075030;28;10582;-79
2022/05/28 05:24:24;;;;;;;;;11.50;11.50;;;;;;;;5074721;28;10685;-85
2022/05/28 05:26:52;;;;;;;;;10.00;9.25;;;;;;;;5076234;28;10551;-80
2022/05/28 05:29:19;;;;;;;;;9.00;9.00;;;;;;;;5077602;28;10623;-81
2022/05/28 05:31:47;;;;;;;;;15.00;12.00;;;;;;;;5075991;28;10257;-81
2022/05/28 05:34:14;;;;;;;;;8.25;6.75;;;;;;;;5056930;28;10363;-83
2022/05/28 05:36:42;;;;;;;;;15.50;14.00;;;;;;;;5076101;28;10206;-82
2022/05/28 05:39:11;;;;;;;;;12.50;12.50;;;;;;;;5052426;28;10437;-81
2022/05/28 05:41:39;;;;;;;;;11.50;9.75;;;;;;;;5072084;28;10337;-81
2022/05/28 05:44:07;;;;;;;;;9.25;9.25;;;;;;;;5073081;28;10083;-80
2022/05/28 05:46:34;;;;;;;;;16.25;14.50;;;;;;;;5070136;28;10031;-85
2022/05/28 05:49:02;;;;;;;;;15.75;14.25;;;;;;;;5079889;28;10039;-85
2022/05/28 05:51:29;;;;;;;;;15.00;11.00;;;;;;;;5068857;28;10013;-80
2022/05/28 05:53:57;;;;;;;;;18.00;14.00;;;;;;;;5066366;28;9997;-80
2022/05/28 05:56:25;;;;;;;;;15.25;13.00;;;;;;;;5066860;28;9872;-83
2022/05/28 05:58:53;;;;;;;;;17.50;15.50;;;;;;;;5071250;28;9862;-78
2022/05/28 06:01:23;;;;;;;;;10.50;10.50;;;;;;;;5070584;28;9910;-81
2022/05/28 06:03:51;;;;;;;;;14.25;10.75;;;;;;;;5067443;28;9906;-78
2022/05/28 06:06:19;;;;;;;;;17.00;13.00;;;;;;;;5079212;28;9751;-82
2022/05/28 06:08:46;;;;;;;;;12.25;12.25;;;;;;;;5079603;28;9769;-79
2022/05/28 06:11:13;;;;;;;;;11.00;11.00;;;;;;;;5061455;28;9731;-78
2022/05/28 06:13:42;;;;;;;;;14.25;10.25;;;;;;;;5052266;28;9656;-80
2022/05/28 06:16:10;;;;;;;;;23.50;16.25;;;;;;;;5060013;28;9635;-79
2022/05/28 06:18:38;;;;;;;;;16.25;13.75;;;;;;;;5079747;28;10397;-81
2022/05/28 06:21:05;;;;;;;;;8.50;8.50;;;;;;;;5075650;28;10446;-76
2022/05/28 06:23:33;;;;;;;;;12.00;10.00;;;;;;;;5075260;28;9670;-77
2022/05/28 06:26:00;;;;;;;;;16.00;13.75;;;;;;;;5078598;28;9631;-77
2022/05/28 06:28:27;;;;;;;;;14.75;9.25;;;;;;;;5072933;28;9727;-78
2022/05/28 06:31:00;;;;;;;;;11.25;11.25;;;;;;;;5072067;28;9524;-76
2022/05/28 06:33:28;;;;;;;;;10.33;10.33;;;;;;;;5077999;28;9455;-75
2022/05/28 06:35:57;;;;;;;;;12.67;12.67;;;;;;;;5074293;28;9329;-76
2022/05/28 06:38:24;;;;;;;;;17.00;13.00;;;;;;;;5077087;28;9329;-75
2022/05/28 06:40:52;;;;;;;;;12.00;9.00;;;;;;;;5058481;28;9322;-74
2022/05/28 06:43:20;;;;;;;;;9.00;9.00;;;;;;;;5079275;28;9175;-75
2022/05/28 06:45:47;;;;;;;;;9.67;8.00;;;;;;;;5077887;28;9191;-76
2022/05/28 06:48:16;;;;;;;;;11.00;6.00;;;;;;;;5070547;28;9040;-76
2022/05/28 06:53:29;;;;;;;;;6.00;6.00;;;;;;;;5076877;28;8949;-76
2022/05/28 06:55:56;;;;;;;;;10.00;8.67;;;;;;;;5078511;28;8989;-77
2022/05/28 06:58:24;;;;;;;;;8.00;8.00;;;;;;;;5077275;28;9017;-75
2022/05/28 07:00:51;;;;;;;;;10.00;10.00;;;;;;;;5072652;28;8975;-77
2022/05/28 07:03:23;;;;;;;;;5.50;5.50;;;;;;;;5077999;28;8953;-77
2022/05/28 07:05:50;;;;;;;;;8.50;8.50;;;;;;;;5077027;28;8887;-77
2022/05/28 07:08:18;;;;;;;;;9.50;8.50;;;;;;;;5080812;28;8896;-77
2022/05/28 07:10:49;;;;;;;;;10.50;6.00;;;;;;;;5077737;28;8963;-75
2022/05/28 07:13:17;;;;;;;;;9.00;9.00;;;;;;;;5076083;28;8884;-78
2022/05/28 07:15:44;;;;;;;;;6.00;6.00;;;;;;;;5059318;28;8846;-77
2022/05/28 07:18:12;;;;;;;;;7.25;4.75;;;;;;;;5075626;28;8866;-76
2022/05/28 07:20:41;;;;;;;;;7.50;7.50;;;;;;;;5074771;28;8937;-75
2022/05/28 07:23:10;;;;;;;;;9.25;7.50;;;;;;;;5066952;28;8946;-76
2022/05/28 07:25:38;;;;;;;;;6.00;6.00;;;;;;;;5074709;28;8878;-75
2022/05/28 07:30:47;;;;;;;;;7.25;7.25;;;;;;;;5072075;28;8827;-75
2022/05/28 07:33:15;;;;;;;;;8.50;6.50;;;;;;;;5047993;28;8873;-76
2022/05/28 07:35:44;;;;;;;;;3.50;3.50;;;;;;;;5066023;28;8852;-75
2022/05/28 07:38:12;;;;;;;;;11.00;5.50;;;;;;;;5071353;28;8926;-77
2022/05/28 07:40:39;;;;;;;;;5.75;5.00;;;;;;;;5072725;28;8922;-78
2022/05/28 07:43:06;;;;;;;;;4.00;2.00;;;;;;;;5069070;28;8867;-76
2022/05/28 07:45:38;;;;;;;;;3.00;3.00;;;;;;;;5076662;28;8874;-76
2022/05/28 07:48:06;;;;;;;;;6.00;3.00;;;;;;;;5077811;28;8889;-75
2022/05/28 07:50:34;;;;;;;;;6.50;4.00;;;;;;;;5079542;28;8888;-75
2022/05/28 07:53:03;;;;;;;;;3.00;3.00;;;;;;;;5046791;28;8876;-76
2022/05/28 07:55:31;;;;;;;;;3.00;3.00;;;;;;;;5074564;28;9360;-75
2022/05/28 07:57:58;;;;;;;;;2.00;2.00;;;;;;;;5071232;28;8860;-75
2022/05/28 08:00:26;;;;;;;;;3.50;3.50;;;;;;;;5070339;28;8781;-73
2022/05/28 08:02:54;;;;;;;;;4.25;3.25;;;;;;;;5070000;28;8917;-72
2022/05/28 08:09:00;;;;;;;;;5.00;4.00;;;;;;;;5080485;28;8879;-75
2022/05/28 08:11:28;;;;;;;;;7.25;4.00;;;;;;;;5063559;28;9077;-74
2022/05/28 08:13:56;;;;;;;;;5.75;3.25;;;;;;;;5079742;28;9626;-74
2022/05/28 08:16:24;;;;;;;;;3.00;3.00;;;;;;;;5080154;28;8901;-74
2022/05/28 08:18:51;;;;;;;;;1.75;1.75;;;;;;;;5073939;28;8872;-74
2022/05/28 08:24:07;;;;;;;;;6.00;3.75;;;;;;;;5077079;28;8854;-74
2022/05/28 08:26:35;;;;;;;;;6.00;4.00;;;;;;;;5070604;28;8954;-74
2022/05/28 08:29:03;;;;;;;;;3.00;2.25;;;;;;;;5076073;28;8862;-74
2022/05/28 08:31:31;;;;;;;;;3.75;3.75;;;;;;;;5066397;28;8806;-76
2022/05/28 08:33:59;;;;;;;;;4.00;3.00;;;;;;;;5071789;28;8938;-72
2022/05/28 08:36:27;;;;;;;;;4.50;4.50;;;;;;;;5067660;28;8886;-78
2022/05/28 08:38:56;;;;;;;;;4.00;4.00;;;;;;;;5081079;28;8886;-72
2022/05/28 08:41:28;;;;;;;;;3.25;2.75;;;;;;;;5069582;28;8960;-73
2022/05/28 08:44:03;;;;;;;;;6.00;4.00;;;;;;;;5066698;28;8894;-74
2022/05/28 08:46:35;;;;;;;;;5.25;2.25;;;;;;;;5069318;28;8992;-73
2022/05/28 08:49:04;;;;;;;;;2.00;2.00;;;;;;;;5073099;28;8870;-72
2022/05/28 08:51:37;;;;;;;;;3.50;3.50;;;;;;;;5052508;28;8862;-73
2022/05/28 08:54:08;;;;;;;;;5.25;4.00;;;;;;;;5070167;28;8842;-73
2022/05/28 08:56:37;;;;;;;;;4.00;4.00;;;;;;;;5073502;28;8905;-75
2022/05/28 08:59:09;;;;;;;;;5.25;4.25;;;;;;;;5073142;28;9483;-73
2022/05/28 09:01:38;;;;;;;;;5.80;3.40;;;;;;;;5072196;28;9575;-73
2022/05/28 09:04:08;;;;;;;;;5.60;3.00;;;;;;;;5071163;28;8869;-75
2022/05/28 09:06:40;;;;;;;;;3.00;3.00;;;;;;;;5079203;28;8862;-76
2022/05/28 09:09:10;;;;;;;;;3.00;3.00;;;;;;;;5055842;28;8930;-74
2022/05/28 09:11:41;;;;;;;;;4.20;3.20;;;;;;;;5072997;28;8874;-74
2022/05/28 09:14:19;;;;;;;;;2.60;2.60;;;;;;;;5076990;28;8854;-74
2022/05/28 09:16:47;;;;;;;;;3.60;3.00;;;;;;;;5076764;28;8858;-74
2022/05/28 09:19:18;;;;;;;;;3.20;3.20;;;;;;;;5078782;28;9670;-75
2022/05/28 09:21:46;;;;;;;;;3.00;3.00;;;;;;;;5074145;28;9647;-74
2022/05/28 09:24:19;;;;;;;;;5.00;3.80;;;;;;;;5076265;28;8962;-74
2022/05/28 09:27:04;;;;;;;;;3.00;3.00;;;;;;;;5073030;28;8866;-75
2022/05/28 09:29:46;;;;;;;;;5.80;3.00;;;;;;;;5069126;28;8875;-74
2022/05/28 09:32:21;;;;;;;;;2.60;2.60;;;;;;;;5070391;28;8921;-74
2022/05/28 09:34:57;;;;;;;;;6.00;6.00;;;;;;;;5071883;28;8842;-74
2022/05/28 09:37:32;;;;;;;;;4.40;4.20;;;;;;;;5076083;28;9654;-74
2022/05/28 09:40:03;;;;;;;;;7.60;5.20;;;;;;;;5071908;28;8882;-74
2022/05/28 09:42:47;;;;;;;;;5.40;4.00;;;;;;;;5065862;28;8840;-75
2022/05/28 09:45:20;;;;;;;;;4.00;2.40;;;;;;;;5049250;28;9004;-74
2022/05/28 09:47:49;;;;;;;;;4.80;4.00;;;;;;;;5070554;28;8876;-76
2022/05/28 09:50:22;;;;;;;;;2.20;2.00;;;;;;;;5067437;28;8864;-74
2022/05/28 09:55:54;;;;;;;;;1.80;1.80;;;;;;;;5072892;28;8825;-74
2022/05/28 09:58:26;;;;;;;;;18.20;18.20;;;;;;;;5066931;28;9339;-76
2022/05/28 10:01:03;;;;;;;;;3.00;3.00;;;;;;;;5069421;28;8817;-75
2022/05/28 10:06:17;;;;;;;;;2.80;2.60;;;;;;;;5061414;28;8848;-75
2022/05/28 10:08:44;;;;;;;;;5.40;3.00;;;;;;;;5064633;28;8961;-75
2022/05/28 10:11:15;;;;;;;;;3.60;3.60;;;;;;;;5064230;28;8862;-75
2022/05/28 10:13:46;;;;;;;;;4.80;4.80;;;;;;;;5066458;28;8885;-73
2022/05/28 10:16:18;;;;;;;;;3.20;3.20;;;;;;;;5066841;28;9302;-72
2022/05/28 10:18:55;;;;;;;;;1.00;1.00;;;;;;;;5071816;28;8870;-73
2022/05/28 10:21:29;;;;;;;;;3.00;3.00;;;;;;;;5076855;28;8850;-74
2022/05/28 10:24:00;;;;;;;;;8.40;7.20;;;;;;;;5057387;28;8899;-74
2022/05/28 10:26:30;;;;;;;;;3.80;2.40;;;;;;;;5056720;28;8872;-74
2022/05/28 10:29:01;;;;;;;;;1.40;1.00;;;;;;;;5071670;28;8836;-74
2022/05/28 10:31:31;;;;;;;;;2.00;2.00;;;;;;;;5064068;28;8915;-73
2022/05/28 10:34:00;;;;;;;;;3.00;3.00;;;;;;;;5072833;28;8976;-74
2022/05/28 10:36:29;;;;;;;;;3.80;2.20;;;;;;;;5069778;28;8881;-74
2022/05/28 10:39:07;;;;;;;;;2.00;2.00;;;;;;;;5076365;28;8850;-75
2022/05/28 10:41:36;;;;;;;;;2.80;2.60;;;;;;;;5063087;28;8879;-75
2022/05/28 10:44:06;;;;;;;;;3.00;2.00;;;;;;;;5067995;28;8889;-75
2022/05/28 10:46:44;;;;;;;;;1.80;1.80;;;;;;;;5074230;28;8879;-74
2022/05/28 10:49:23;;;;;;;;;3.00;2.00;;;;;;;;5070075;28;8882;-73
2022/05/28 10:51:58;;;;;;;;;1.00;1.00;;;;;;;;5073710;28;8972;-75
2022/05/28 10:54:36;;;;;;;;;1.20;1.20;;;;;;;;5073668;28;8869;-73
2022/05/28 10:57:23;;;;;;;;;1.60;1.60;;;;;;;;5078753;28;9345;-74
2022/05/28 11:00:04;;;;;;;;;1.80;1.80;;;;;;;;5077107;28;8894;-74
2022/05/28 11:02:59;;;;;;;;;2.60;1.80;;;;;;;;5073841;28;8849;-77
2022/05/28 11:05:46;;;;;;;;;4.40;4.00;;;;;;;;5041957;28;8880;-76
2022/05/28 11:08:18;;;;;;;;;3.80;3.80;;;;;;;;5072443;28;8894;-74
2022/05/28 11:11:07;;;;;;;;;2.00;2.00;;;;;;;;5058199;28;8878;-75
2022/05/28 11:13:55;;;;;;;;;4.20;2.00;;;;;;;;5076824;28;8834;-74
2022/05/28 11:16:39;;;;;;;;;2.40;2.00;;;;;;;;5077675;28;8878;-75
2022/05/28 11:19:18;;;;;;;;;1.80;1.80;;;;;;;;5073972;28;8904;-75
2022/05/28 11:22:01;;;;;;;;;3.60;1.80;;;;;;;;5076572;28;8874;-76
2022/05/28 11:24:53;;;;;;;;;0.80;0.80;;;;;;;;5073381;28;8992;-75
2022/05/28 11:27:42;;;;;;;;;1.00;1.00;;;;;;;;5072523;28;8869;-75
2022/05/28 11:30:15;;;;;;;;;2.00;2.00;;;;;;;;5066163;28;8900;-75
2022/05/28 11:32:47;;;;;;;;;3.40;2.00;;;;;;;;5075601;28;8885;-75
2022/05/28 11:35:26;;;;;;;;;2.80;1.60;;;;;;;;5079682;28;8846;-76
2022/05/28 11:37:57;;;;;;;;;3.00;3.00;;;;;;;;5078374;28;8862;-77
2022/05/28 11:40:26;;;;;;;;;1.60;1.60;;;;;;;;5081514;28;9544;-74
2022/05/28 11:42:59;;;;;;;;;0.40;0.40;;;;;;;;5059019;28;9631;-74
2022/05/28 11:45:37;;;;;;;;;2.80;2.60;;;;;;;;5082334;28;9623;-74
2022/05/28 11:48:09;;;;;;;;;3.20;1.80;;;;;;;;5078019;28;8876;-75
2022/05/28 11:53:35;;;;;;;;;2.20;2.20;;;;;;;;5078542;28;8832;-74
2022/05/28 11:56:07;;;;;;;;;2.60;2.60;;;;;;;;5077812;28;8947;-76
2022/05/28 11:58:39;;;;;;;;;3.00;3.00;;;;;;;;5077735;28;9615;-77
2022/05/28 12:01:09;;;;;;;;;2.00;2.00;;;;;;;;5078241;28;8933;-73
2022/05/28 12:03:40;;;;;;;;;2.20;1.80;;;;;;;;5079307;28;8873;-75
2022/05/28 12:06:20;;;;;;;;;1.40;1.40;;;;;;;;5054489;28;8844;-74
2022/05/28 12:08:50;;;;;;;;;1.80;1.40;;;;;;;;5049357;28;8968;-74
2022/05/28 12:11:45;;;;;;;;;1.40;1.40;;;;;;;;5080681;28;8882;-74
2022/05/28 12:14:29;;;;;;;;;0.40;0.40;;;;;;;;5066874;28;8920;-74
2022/05/28 12:17:07;;;;;;;;;1.60;1.60;;;;;;;;5078172;28;8893;-74
2022/05/28 12:19:44;;;;;;;;;1.80;1.80;;;;;;;;5080520;28;8889;-74
2022/05/28 12:22:25;;;;;;;;;1.40;1.40;;;;;;;;5079549;28;8888;-74
2022/05/28 12:25:08;;;;;;;;;1.80;1.80;;;;;;;;5073036;28;8881;-76
2022/05/28 12:27:44;;;;;;;;;0.60;0.60;;;;;;;;5071791;28;8846;-74
2022/05/28 12:30:28;;;;;;;;;1.20;1.00;;;;;;;;5063007;28;8946;-74
2022/05/28 12:32:58;;;;;;;;;0.80;0.80;;;;;;;;5067343;28;8864;-74
2022/05/28 12:35:35;;;;;;;;;1.60;1.60;;;;;;;;5072904;28;8937;-74
2022/05/28 12:38:12;;;;;;;;;0.00;0.00;;;;;;;;5071006;28;8883;-76
2022/05/28 12:40:43;;;;;;;;;1.80;0.80;;;;;;;;5052916;28;8842;-75
2022/05/28 12:43:15;;;;;;;;;0.80;0.80;;;;;;;;5076413;28;8841;-77
2022/05/28 12:45:44;;;;;;;;;1.80;0.60;;;;;;;;5078726;28;9056;-78
2022/05/28 12:48:14;;;;;;;;;0.80;0.80;;;;;;;;5071124;28;8856;-75
2022/05/28 12:51:04;;;;;;;;;0.80;0.80;;;;;;;;5080224;28;8997;-74
2022/05/28 12:53:35;;;;;;;;;0.80;0.80;;;;;;;;5077671;28;8865;-77
2022/05/28 12:56:08;;;;;;;;;0.80;0.80;;;;;;;;5076957;28;8886;-76
2022/05/28 12:58:37;;;;;;;;;1.20;0.00;;;;;;;;5079539;28;8882;-75
2022/05/28 13:01:07;;;;;;;;;1.40;1.00;;;;;;;;5070150;28;8821;-74
2022/05/28 13:03:43;;;;;;;;;0.80;0.80;;;;;;;;5056365;28;8912;-75
2022/05/28 13:06:15;;;;;;;;;0.80;0.80;;;;;;;;5073050;28;8876;-77
2022/05/28 13:08:46;;;;;;;;;1.60;0.60;;;;;;;;5071949;28;8858;-75
2022/05/28 13:11:28;;;;;;;;;0.80;0.80;;;;;;;;5074915;28;8854;-75
2022/05/28 13:14:42;;;;;;;;;0.80;0.80;;;;;;;;5076663;28;8990;-76
2022/05/28 13:17:21;;;;;;;;;0.80;0.80;;;;;;;;5012428;28;8870;-74
2022/05/28 13:20:17;;;;;;;;;0.60;0.60;;;;;;;;5073156;28;8842;-74
2022/05/28 13:23:11;;;;;;;;;0.40;0.40;;;;;;;;5046326;28;8875;-73
2022/05/28 13:25:57;;;;;;;;;0.40;0.40;;;;;;;;5044212;28;9655;-74
2022/05/28 13:28:45;;;;;;;;;0.00;0.00;;;;;;;;5078039;28;8846;-74
2022/05/28 13:31:14;;;;;;;;;1.80;0.80;;;;;;;;5070294;28;8821;-74
2022/05/28 13:33:42;;;;;;;;;3.00;1.20;;;;;;;;5067302;28;8876;-74
2022/05/28 13:36:13;;;;;;;;;0.80;0.80;;;;;;;;5070049;28;9692;-74
2022/05/28 13:38:43;;;;;;;;;0.40;0.40;;;;;;;;5070144;28;8876;-74
2022/05/28 13:41:13;;;;;;;;;0.80;0.80;;;;;;;;5050724;28;8858;-74
2022/05/28 13:43:43;;;;;;;;;0.40;0.40;;;;;;;;5077750;28;8874;-73
2022/05/28 13:46:11;;;;;;;;;3.20;0.00;;;;;;;;5078170;28;8930;-74
2022/05/28 13:48:41;;;;;;;;;1.00;1.00;;;;;;;;5072755;28;8874;-73
2022/05/28 13:51:10;;;;;;;;;0.40;0.40;;;;;;;;5058651;28;8881;-73
2022/05/28 13:53:41;;;;;;;;;0.00;0.00;;;;;;;;5073348;28;8880;-72
2022/05/28 13:56:15;;;;;;;;;0.80;0.80;;;;;;;;5073791;28;8873;-74
2022/05/28 13:58:44;;;;;;;;;0.80;0.80;;;;;;;;5076721;28;8850;-75
2022/05/28 14:01:23;;;;;;;;;0.80;0.80;;;;;;;;5073327;28;8814;-75
2022/05/28 14:03:50;;;;;;;;;0.80;0.80;;;;;;;;5077984;28;8936;-75
2022/05/28 14:06:20;;;;;;;;;0.00;0.00;;;;;;;;5058955;28;8862;-75
2022/05/28 14:08:50;;;;;;;;;1.00;1.00;;;;;;;;5073399;28;8872;-75
2022/05/28 14:11:22;;;;;;;;;0.00;0.00;;;;;;;;5073736;28;8910;-75
2022/05/28 14:13:51;;;;;;;;;0.00;0.00;;;;;;;;5064626;28;8872;-75
2022/05/28 14:16:24;;;;;;;;;0.00;0.00;;;;;;;;5078846;28;8839;-74
2022/05/28 14:18:52;;;;;;;;;0.00;0.00;;;;;;;;5074461;28;8868;-75
2022/05/28 14:21:22;;;;;;;;;0.00;0.00;;;;;;;;5070158;28;8878;-75
2022/05/28 14:23:51;;;;;;;;;0.00;0.00;;;;;;;;5070249;28;9426;-75
2022/05/28 14:26:20;;;;;;;;;0.00;0.00;;;;;;;;5070910;28;8862;-76
2022/05/28 14:28:48;;;;;;;;;0.00;0.00;;;;;;;;5080461;28;9743;-75
2022/05/28 14:31:18;;;;;;;;;0.60;0.00;;;;;;;;5081164;28;8799;-75
2022/05/28 14:33:50;;;;;;;;;0.00;0.00;;;;;;;;5082651;28;8893;-76
2022/05/28 14:36:29;;;;;;;;;1.00;0.00;;;;;;;;5077794;28;8852;-75
2022/05/28 14:39:09;;;;;;;;;0.00;0.00;;;;;;;;5082132;28;8892;-75
2022/05/28 14:41:37;;;;;;;;;0.00;0.00;;;;;;;;5078491;28;8894;-75
2022/05/28 14:44:05;;;;;;;;;0.40;0.40;;;;;;;;5082421;28;8882;-76
2022/05/28 14:46:36;;;;;;;;;0.00;0.00;;;;;;;;5079171;28;8856;-76
2022/05/28 14:49:06;;;;;;;;;0.00;0.00;;;;;;;;5082285;28;8858;-76
2022/05/28 14:51:37;;;;;;;;;0.00;0.00;;;;;;;;5062914;28;8854;-75
2022/05/28 14:54:05;;;;;;;;;1.80;0.00;;;;;;;;5077202;28;8933;-75
2022/05/28 14:56:35;;;;;;;;;0.00;0.00;;;;;;;;5079187;28;8866;-74
2022/05/28 14:59:04;;;;;;;;;0.40;0.00;;;;;;;;5073294;28;8881;-75
2022/05/28 15:01:32;;;;;;;;;0.20;0.20;;;;;;;;5077594;28;8837;-75
2022/05/28 15:04:10;;;;;;;;;0.00;0.00;;;;;;;;5078072;28;8876;-75
2022/05/28 15:06:47;;;;;;;;;0.40;0.40;;;;;;;;5073511;28;8900;-74
2022/05/28 15:09:21;;;;;;;;;1.60;0.80;;;;;;;;5076022;28;9407;-75
2022/05/28 15:11:49;;;;;;;;;0.80;0.80;;;;;;;;5077956;28;8897;-74
2022/05/28 15:14:26;;;;;;;;;0.60;0.60;;;;;;;;5079478;28;9032;-73
2022/05/28 15:16:54;;;;;;;;;0.20;0.20;;;;;;;;5073939;28;9652;-74
2022/05/28 15:19:22;;;;;;;;;0.80;0.80;;;;;;;;5076298;28;8898;-74
2022/05/28 15:21:50;;;;;;;;;0.80;0.80;;;;;;;;5077125;28;8850;-74
2022/05/28 15:24:18;;;;;;;;;2.60;1.00;;;;;;;;5077756;28;8928;-74
2022/05/28 15:26:45;;;;;;;;;0.80;0.80;;;;;;;;5077937;28;8938;-75
2022/05/28 15:29:14;;;;;;;;;0.80;0.80;;;;;;;;5070741;28;8918;-74
2022/05/28 15:31:42;;;;;;;;;0.80;0.80;;;;;;;;5078285;28;8844;-74
2022/05/28 15:34:13;;;;;;;;;1.00;1.00;;;;;;;;5077408;28;8976;-74